UAE107 OMDB-EGCC
Flight info
| Callsign | UAE107 |
|---|---|
| Flight time | N/A |
| Altitude | 34000 |
| Route | ANVIX R401 GIDIS G783 RIGIL M628 PEKEM DCT MEDPO DCT ITRUX Y511 PMA Z712 WEJ/N0498F360 L677 CVO L617 TANSA UL613 KOR DCT DIMIS DCT VAKSU/N0477F380 DCT SPL DCT ZDA DCT PEVAL DCT LAMPO DCT GUNGO DCT SAFFA DCT ELMUR DCT RIPUS L613 HOC DCT LUL DCT RLP DCT ROTSI DCT KOTUN DCT AMAXA DCT VESAN DCT RATUK DCT SOVAT L613 SANDY UN57 WELIN T420 ELVOS |
| Aircraft | B77W/H-SDE1E2E3FGHIJ2J3J4J5M1RWXY/LB1D1 |
Departure
| Time | 2026-04-26 02:38 |
|---|---|
| Airport | Dubai International Airport (OMDB) |
Arrival
| Time | N/A |
|---|---|
| Airport | Manchester Airport (EGCC) |
| Time | Latitude | Longitude | Altitude | Speed | Heading |
|---|---|---|---|---|---|
| 2026-04-26 02:28 | 25.25600 | 55.37299 | 45 ft | 0 kts | 31° |
| 2026-04-26 02:28 | 25.25598 | 55.37297 | 45 ft | 2 kts | 31° |
| 2026-04-26 02:28 | 25.25585 | 55.37289 | 45 ft | 2 kts | 31° |
| 2026-04-26 02:29 | 25.25572 | 55.37280 | 45 ft | 2 kts | 31° |
| 2026-04-26 02:29 | 25.25559 | 55.37271 | 45 ft | 2 kts | 39° |
| 2026-04-26 02:29 | 25.25550 | 55.37259 | 45 ft | 2 kts | 66° |
| 2026-04-26 02:29 | 25.25546 | 55.37243 | 45 ft | 2 kts | 86° |
| 2026-04-26 02:30 | 25.25547 | 55.37227 | 45 ft | 2 kts | 107° |
| 2026-04-26 02:30 | 25.25551 | 55.37217 | 45 ft | 0 kts | 122° |
| 2026-04-26 02:30 | 25.25553 | 55.37213 | 45 ft | 0 kts | 122° |
| 2026-04-26 02:33 | 25.25548 | 55.37223 | 45 ft | 4 kts | 119° |
| 2026-04-26 02:34 | 25.25516 | 55.37283 | 45 ft | 10 kts | 120° |
| 2026-04-26 02:34 | 25.25471 | 55.37360 | 45 ft | 11 kts | 137° |
| 2026-04-26 02:34 | 25.25382 | 55.37392 | 45 ft | 15 kts | 155° |
| 2026-04-26 02:34 | 25.25304 | 55.37488 | 45 ft | 18 kts | 120° |
| 2026-04-26 02:35 | 25.25233 | 55.37620 | 45 ft | 20 kts | 121° |
| 2026-04-26 02:35 | 25.25162 | 55.37748 | 45 ft | 18 kts | 120° |
| 2026-04-26 02:35 | 25.25099 | 55.37862 | 45 ft | 18 kts | 120° |
| 2026-04-26 02:35 | 25.25026 | 55.37994 | 45 ft | 20 kts | 122° |
| 2026-04-26 02:36 | 25.24954 | 55.38121 | 45 ft | 18 kts | 122° |
| 2026-04-26 02:36 | 25.24893 | 55.38231 | 45 ft | 16 kts | 122° |
| 2026-04-26 02:36 | 25.24839 | 55.38331 | 45 ft | 13 kts | 121° |
| 2026-04-26 02:36 | 25.24793 | 55.38406 | 46 ft | 9 kts | 141° |
| 2026-04-26 02:37 | 25.24727 | 55.38398 | 46 ft | 12 kts | 211° |
| 2026-04-26 02:37 | 25.24657 | 55.38345 | 46 ft | 11 kts | 232° |
| 2026-04-26 02:37 | 25.24667 | 55.38276 | 45 ft | 10 kts | 301° |
| 2026-04-26 02:37 | 25.24776 | 55.38078 | 45 ft | 62 kts | 301° |
| 2026-04-26 02:38 | 25.25122 | 55.37454 | 46 ft | 127 kts | 301° |
| 2026-04-26 02:38 | 25.25691 | 55.36424 | 47 ft | 184 kts | 300° |
| 2026-04-26 02:38 | 25.26412 | 55.35122 | 370 ft | 207 kts | 300° |
| 2026-04-26 02:38 | 25.27162 | 55.33755 | 1271 ft | 208 kts | 301° |
| 2026-04-26 02:39 | 25.27854 | 55.32516 | 2299 ft | 186 kts | 301° |
| 2026-04-26 02:39 | 25.28533 | 55.31302 | 2839 ft | 188 kts | 301° |
| 2026-04-26 02:39 | 25.29041 | 55.29976 | 3347 ft | 191 kts | 281° |
| 2026-04-26 02:39 | 25.29092 | 55.28485 | 3716 ft | 205 kts | 262° |
| 2026-04-26 02:40 | 25.28625 | 55.26935 | 4032 ft | 224 kts | 245° |
| 2026-04-26 02:40 | 25.27858 | 55.25360 | 4389 ft | 241 kts | 245° |
| 2026-04-26 02:40 | 25.27088 | 55.23645 | 4778 ft | 257 kts | 246° |
| 2026-04-26 02:40 | 25.26308 | 55.21820 | 5321 ft | 266 kts | 247° |
| 2026-04-26 02:41 | 25.25518 | 55.19963 | 5982 ft | 270 kts | 246° |
| 2026-04-26 02:41 | 25.24486 | 55.18222 | 6677 ft | 276 kts | 225° |
| 2026-04-26 02:41 | 25.22871 | 55.17104 | 7331 ft | 281 kts | 200° |
| 2026-04-26 02:41 | 25.20913 | 55.16819 | 8011 ft | 286 kts | 180° |
| 2026-04-26 02:42 | 25.18988 | 55.17308 | 8645 ft | 293 kts | 155° |
| 2026-04-26 02:42 | 25.17383 | 55.18718 | 9269 ft | 299 kts | 128° |
| 2026-04-26 02:42 | 25.16416 | 55.20742 | 9870 ft | 305 kts | 114° |
| 2026-04-26 02:42 | 25.15588 | 55.22907 | 10425 ft | 312 kts | 116° |
| 2026-04-26 02:43 | 25.13551 | 55.27401 | 11045 ft | 343 kts | 119° |
| 2026-04-26 02:43 | 25.12398 | 55.29806 | 11357 ft | 359 kts | 119° |
| 2026-04-26 02:43 | 25.11206 | 55.32283 | 11691 ft | 374 kts | 119° |
| 2026-04-26 02:44 | 25.10003 | 55.34866 | 12046 ft | 387 kts | 116° |
| 2026-04-26 02:44 | 25.08880 | 55.37616 | 12381 ft | 401 kts | 115° |
| 2026-04-26 02:44 | 25.07719 | 55.40479 | 12848 ft | 411 kts | 115° |
| 2026-04-26 02:44 | 25.06576 | 55.43333 | 13504 ft | 414 kts | 114° |
| 2026-04-26 02:45 | 25.05448 | 55.46296 | 14191 ft | 417 kts | 113° |
| 2026-04-26 02:45 | 25.04324 | 55.49250 | 14732 ft | 425 kts | 113° |
| 2026-04-26 02:45 | 25.03180 | 55.52245 | 15360 ft | 430 kts | 114° |
| 2026-04-26 02:45 | 25.01972 | 55.55279 | 16042 ft | 432 kts | 118° |
| 2026-04-26 02:46 | 25.00500 | 55.58155 | 16633 ft | 437 kts | 122° |
| 2026-04-26 02:46 | 24.98926 | 55.61074 | 17168 ft | 444 kts | 122° |
| 2026-04-26 02:46 | 24.97340 | 55.64006 | 17787 ft | 448 kts | 122° |
| 2026-04-26 02:46 | 24.95745 | 55.66954 | 18451 ft | 451 kts | 122° |
| 2026-04-26 02:47 | 24.94111 | 55.69912 | 19054 ft | 453 kts | 126° |
| 2026-04-26 02:47 | 24.92286 | 55.72743 | 19633 ft | 456 kts | 128° |
| 2026-04-26 02:47 | 24.90419 | 55.75555 | 20200 ft | 460 kts | 128° |
| 2026-04-26 02:47 | 24.88511 | 55.78426 | 20805 ft | 463 kts | 128° |
| 2026-04-26 02:48 | 24.86605 | 55.81294 | 21395 ft | 465 kts | 128° |
| 2026-04-26 02:48 | 24.84695 | 55.84169 | 21926 ft | 469 kts | 128° |
| 2026-04-26 02:48 | 24.82711 | 55.87021 | 22439 ft | 471 kts | 134° |
| 2026-04-26 02:48 | 24.80383 | 55.89539 | 22913 ft | 471 kts | 143° |
| 2026-04-26 02:49 | 24.77733 | 55.91601 | 23379 ft | 471 kts | 153° |
| 2026-04-26 02:49 | 24.74780 | 55.93185 | 23871 ft | 470 kts | 162° |
| 2026-04-26 02:49 | 24.71663 | 55.94215 | 24347 ft | 469 kts | 171° |
| 2026-04-26 02:49 | 24.68395 | 55.94685 | 24814 ft | 468 kts | 181° |
| 2026-04-26 02:50 | 24.65141 | 55.94574 | 25301 ft | 467 kts | 189° |
| 2026-04-26 02:50 | 24.61982 | 55.93921 | 25768 ft | 466 kts | 198° |
| 2026-04-26 02:50 | 24.58914 | 55.92728 | 26236 ft | 466 kts | 207° |
| 2026-04-26 02:50 | 24.56045 | 55.91024 | 26692 ft | 466 kts | 215° |
| 2026-04-26 02:51 | 24.53479 | 55.88879 | 27127 ft | 468 kts | 224° |
| 2026-04-26 02:51 | 24.51203 | 55.86372 | 27589 ft | 469 kts | 228° |
| 2026-04-26 02:51 | 24.48917 | 55.83763 | 28081 ft | 472 kts | 227° |
| 2026-04-26 02:51 | 24.46601 | 55.81230 | 28528 ft | 475 kts | 226° |
| 2026-04-26 02:52 | 24.44194 | 55.78694 | 29004 ft | 478 kts | 225° |
| 2026-04-26 02:52 | 24.41776 | 55.76213 | 29469 ft | 480 kts | 225° |
| 2026-04-26 02:52 | 24.39302 | 55.73721 | 29925 ft | 482 kts | 225° |
| 2026-04-26 02:52 | 24.36810 | 55.71245 | 30370 ft | 485 kts | 225° |
| 2026-04-26 02:53 | 24.34285 | 55.68761 | 30820 ft | 486 kts | 225° |
| 2026-04-26 02:53 | 24.31761 | 55.66298 | 31326 ft | 486 kts | 225° |
| 2026-04-26 02:53 | 24.29238 | 55.63871 | 31783 ft | 487 kts | 223° |
| 2026-04-26 02:53 | 24.26412 | 55.61686 | 32168 ft | 494 kts | 215° |
| 2026-04-26 02:54 | 24.23292 | 55.59977 | 32453 ft | 503 kts | 206° |
| 2026-04-26 02:54 | 24.19947 | 55.58761 | 32738 ft | 511 kts | 200° |
| 2026-04-26 02:54 | 24.16497 | 55.57729 | 33106 ft | 513 kts | 200° |
| 2026-04-26 02:54 | 24.13047 | 55.56714 | 33565 ft | 513 kts | 200° |
| 2026-04-26 02:55 | 24.09584 | 55.55691 | 33921 ft | 514 kts | 200° |
| 2026-04-26 02:55 | 24.06106 | 55.54662 | 33938 ft | 514 kts | 200° |
| 2026-04-26 02:55 | 23.99260 | 55.52632 | 33941 ft | 511 kts | 200° |
| 2026-04-26 02:56 | 23.92377 | 55.50594 | 33928 ft | 511 kts | 200° |
| 2026-04-26 02:56 | 23.85485 | 55.48552 | 33923 ft | 513 kts | 200° |
| 2026-04-26 02:57 | 23.78573 | 55.46502 | 33923 ft | 511 kts | 200° |
| 2026-04-26 02:57 | 23.71708 | 55.44465 | 33917 ft | 512 kts | 200° |
| 2026-04-26 02:58 | 23.64799 | 55.42419 | 33918 ft | 512 kts | 200° |
| 2026-04-26 02:58 | 23.57939 | 55.40389 | 33917 ft | 513 kts | 200° |
| 2026-04-26 02:59 | 23.51026 | 55.38344 | 33911 ft | 514 kts | 200° |
| 2026-04-26 02:59 | 23.44100 | 55.36297 | 33916 ft | 512 kts | 200° |
| 2026-04-26 03:00 | 23.37201 | 55.34257 | 33916 ft | 514 kts | 200° |
| 2026-04-26 03:00 | 23.30267 | 55.32211 | 33916 ft | 515 kts | 199° |
| 2026-04-26 03:01 | 23.23360 | 55.30175 | 33912 ft | 513 kts | 200° |
| 2026-04-26 03:01 | 23.16464 | 55.28109 | 33906 ft | 512 kts | 203° |
| 2026-04-26 03:02 | 23.10135 | 55.24748 | 33909 ft | 502 kts | 220° |
| 2026-04-26 03:02 | 23.05047 | 55.19770 | 33905 ft | 487 kts | 236° |
| 2026-04-26 03:03 | 23.01439 | 55.13588 | 33912 ft | 482 kts | 250° |
| 2026-04-26 03:03 | 22.99483 | 55.06807 | 33914 ft | 468 kts | 262° |
| 2026-04-26 03:04 | 22.98140 | 54.99903 | 33917 ft | 466 kts | 262° |
| 2026-04-26 03:04 | 22.96798 | 54.93040 | 33919 ft | 468 kts | 262° |
| 2026-04-26 03:05 | 22.95443 | 54.86165 | 33916 ft | 467 kts | 262° |
| 2026-04-26 03:05 | 22.94084 | 54.79304 | 33916 ft | 467 kts | 262° |
| 2026-04-26 03:06 | 22.92715 | 54.72416 | 33916 ft | 467 kts | 262° |
| 2026-04-26 03:06 | 22.91338 | 54.65512 | 33919 ft | 467 kts | 262° |
| 2026-04-26 03:07 | 22.89961 | 54.58626 | 33919 ft | 467 kts | 263° |
| 2026-04-26 03:07 | 22.88589 | 54.51783 | 33911 ft | 465 kts | 262° |
| 2026-04-26 03:08 | 22.87209 | 54.44916 | 33916 ft | 467 kts | 263° |
| 2026-04-26 03:08 | 22.85834 | 54.38090 | 33914 ft | 466 kts | 263° |
| 2026-04-26 03:09 | 22.84448 | 54.31230 | 33923 ft | 466 kts | 262° |
| 2026-04-26 03:09 | 22.83067 | 54.24404 | 33927 ft | 466 kts | 262° |
| 2026-04-26 03:10 | 22.81670 | 54.17518 | 33927 ft | 467 kts | 262° |
| 2026-04-26 03:10 | 22.80283 | 54.10701 | 33930 ft | 465 kts | 262° |
| 2026-04-26 03:11 | 22.78888 | 54.03856 | 33931 ft | 466 kts | 262° |
| 2026-04-26 03:11 | 22.77508 | 53.97042 | 33929 ft | 466 kts | 263° |
| 2026-04-26 03:12 | 22.76179 | 53.90201 | 33926 ft | 464 kts | 263° |
| 2026-04-26 03:12 | 22.75575 | 53.87089 | 33926 ft | 464 kts | 263° |
| 2026-04-26 03:13 | 22.74242 | 53.80257 | 33921 ft | 463 kts | 263° |
| 2026-04-26 03:13 | 22.72910 | 53.73449 | 33918 ft | 465 kts | 263° |
| 2026-04-26 03:14 | 22.71566 | 53.66604 | 33918 ft | 463 kts | 263° |
| 2026-04-26 03:14 | 22.70234 | 53.59837 | 33920 ft | 462 kts | 263° |
| 2026-04-26 03:15 | 22.68895 | 53.53048 | 33917 ft | 462 kts | 263° |
| 2026-04-26 03:15 | 22.67555 | 53.46270 | 33923 ft | 461 kts | 263° |
| 2026-04-26 03:16 | 22.67492 | 53.45952 | 33923 ft | 461 kts | 263° |
| 2026-04-26 03:17 | 22.67010 | 53.43516 | 33919 ft | 462 kts | 263° |
| 2026-04-26 03:17 | 22.65886 | 53.37845 | 33918 ft | 461 kts | 263° |
| 2026-04-26 03:18 | 22.64984 | 53.33301 | 33924 ft | 460 kts | 263° |
| 2026-04-26 03:18 | 22.63637 | 53.26535 | 33926 ft | 460 kts | 263° |
| 2026-04-26 03:19 | 22.62287 | 53.19766 | 33929 ft | 461 kts | 263° |
| 2026-04-26 03:19 | 22.61098 | 53.13823 | 33929 ft | 460 kts | 263° |
| 2026-04-26 03:20 | 22.59947 | 53.08078 | 33928 ft | 460 kts | 263° |
| 2026-04-26 03:20 | 22.58585 | 53.01296 | 33923 ft | 460 kts | 263° |
| 2026-04-26 03:21 | 22.57235 | 52.94591 | 33926 ft | 459 kts | 263° |
| 2026-04-26 03:21 | 22.55875 | 52.87850 | 33926 ft | 460 kts | 263° |
| 2026-04-26 03:22 | 22.54507 | 52.81084 | 33925 ft | 459 kts | 263° |
| 2026-04-26 03:22 | 22.53147 | 52.74372 | 33926 ft | 460 kts | 263° |
| 2026-04-26 03:23 | 22.51773 | 52.67609 | 33924 ft | 459 kts | 263° |
| 2026-04-26 03:23 | 22.50408 | 52.60899 | 33923 ft | 459 kts | 263° |
| 2026-04-26 03:24 | 22.49028 | 52.54136 | 33924 ft | 459 kts | 263° |
| 2026-04-26 03:24 | 22.47660 | 52.47448 | 33922 ft | 459 kts | 263° |
| 2026-04-26 03:25 | 22.46272 | 52.40673 | 33922 ft | 460 kts | 263° |
| 2026-04-26 03:25 | 22.44893 | 52.33962 | 33925 ft | 457 kts | 262° |
| 2026-04-26 03:26 | 22.43508 | 52.27230 | 33932 ft | 460 kts | 262° |
| 2026-04-26 03:26 | 22.42117 | 52.20486 | 33930 ft | 459 kts | 262° |
| 2026-04-26 03:27 | 22.40882 | 52.13753 | 33927 ft | 454 kts | 269° |
| 2026-04-26 03:27 | 22.41083 | 52.07059 | 33930 ft | 448 kts | 279° |
| 2026-04-26 03:28 | 22.41679 | 52.00337 | 33926 ft | 447 kts | 279° |
| 2026-04-26 03:28 | 22.42263 | 51.93673 | 33926 ft | 448 kts | 279° |
| 2026-04-26 03:29 | 22.42841 | 51.87008 | 33924 ft | 447 kts | 279° |
| 2026-04-26 03:29 | 22.43414 | 51.80330 | 33922 ft | 447 kts | 279° |
| 2026-04-26 03:30 | 22.43982 | 51.73668 | 33921 ft | 447 kts | 279° |
| 2026-04-26 03:30 | 22.44549 | 51.66988 | 33922 ft | 445 kts | 278° |
| 2026-04-26 03:31 | 22.45109 | 51.60356 | 33923 ft | 447 kts | 279° |
| 2026-04-26 03:31 | 22.45668 | 51.53695 | 33923 ft | 445 kts | 278° |
| 2026-04-26 03:32 | 22.46221 | 51.47068 | 33924 ft | 446 kts | 278° |
| 2026-04-26 03:32 | 22.46778 | 51.40369 | 33924 ft | 446 kts | 278° |
| 2026-04-26 03:33 | 22.47328 | 51.33723 | 33930 ft | 445 kts | 278° |
| 2026-04-26 03:33 | 22.47876 | 51.27059 | 33938 ft | 444 kts | 278° |
| 2026-04-26 03:34 | 22.48419 | 51.20422 | 33935 ft | 444 kts | 278° |
| 2026-04-26 03:34 | 22.48959 | 51.13791 | 33936 ft | 443 kts | 278° |
| 2026-04-26 03:35 | 22.49494 | 51.07196 | 33939 ft | 445 kts | 278° |
| 2026-04-26 03:35 | 22.50031 | 51.00534 | 33940 ft | 444 kts | 278° |
| 2026-04-26 03:36 | 22.50561 | 50.93920 | 33936 ft | 443 kts | 278° |
| 2026-04-26 03:36 | 22.51090 | 50.87298 | 33939 ft | 444 kts | 278° |
| 2026-04-26 03:37 | 22.51617 | 50.80650 | 33939 ft | 443 kts | 278° |
| 2026-04-26 03:37 | 22.52138 | 50.74053 | 33938 ft | 443 kts | 278° |
| 2026-04-26 03:38 | 22.52661 | 50.67399 | 33941 ft | 443 kts | 278° |
| 2026-04-26 03:38 | 22.53177 | 50.60793 | 33939 ft | 442 kts | 278° |
| 2026-04-26 03:39 | 22.53691 | 50.54178 | 33940 ft | 443 kts | 278° |
| 2026-04-26 03:39 | 22.54201 | 50.47578 | 33943 ft | 442 kts | 278° |
| 2026-04-26 03:40 | 22.54710 | 50.40961 | 33937 ft | 443 kts | 278° |
| 2026-04-26 03:40 | 22.55218 | 50.34320 | 33942 ft | 442 kts | 277° |
| 2026-04-26 03:41 | 22.55719 | 50.27731 | 33950 ft | 442 kts | 278° |
| 2026-04-26 03:41 | 22.56219 | 50.21120 | 33950 ft | 441 kts | 278° |
| 2026-04-26 03:42 | 22.56716 | 50.14507 | 33949 ft | 442 kts | 277° |
| 2026-04-26 03:42 | 22.57209 | 50.07917 | 33950 ft | 441 kts | 278° |
| 2026-04-26 03:43 | 22.57702 | 50.01291 | 33950 ft | 440 kts | 277° |
| 2026-04-26 03:43 | 22.58189 | 49.94718 | 33946 ft | 442 kts | 278° |
| 2026-04-26 03:44 | 22.58675 | 49.88110 | 33944 ft | 440 kts | 277° |
| 2026-04-26 03:44 | 22.59157 | 49.81527 | 33947 ft | 440 kts | 278° |
| 2026-04-26 03:45 | 22.59634 | 49.74969 | 33947 ft | 440 kts | 277° |
| 2026-04-26 03:45 | 22.60111 | 49.68366 | 33941 ft | 439 kts | 278° |
| 2026-04-26 03:46 | 22.60585 | 49.61780 | 33941 ft | 440 kts | 277° |
| 2026-04-26 03:47 | 22.61288 | 49.51938 | 33942 ft | 440 kts | 277° |
| 2026-04-26 03:47 | 22.61753 | 49.45370 | 33941 ft | 438 kts | 277° |
| 2026-04-26 03:48 | 22.62216 | 49.38809 | 33942 ft | 437 kts | 277° |
| 2026-04-26 03:48 | 22.62673 | 49.32285 | 33958 ft | 438 kts | 277° |
| 2026-04-26 03:49 | 22.63131 | 49.25705 | 33958 ft | 438 kts | 277° |
| 2026-04-26 03:49 | 22.63586 | 49.19132 | 33957 ft | 437 kts | 277° |
| 2026-04-26 03:50 | 22.64036 | 49.12607 | 33957 ft | 438 kts | 277° |
| 2026-04-26 03:50 | 22.64484 | 49.06060 | 33955 ft | 436 kts | 277° |
| 2026-04-26 03:51 | 22.64931 | 48.99486 | 33951 ft | 439 kts | 277° |
| 2026-04-26 03:51 | 22.65371 | 48.92971 | 33955 ft | 436 kts | 277° |
| 2026-04-26 03:52 | 22.65812 | 48.86416 | 33953 ft | 438 kts | 277° |
| 2026-04-26 03:52 | 22.66250 | 48.79843 | 33960 ft | 436 kts | 277° |
| 2026-04-26 03:53 | 22.66681 | 48.73361 | 33962 ft | 435 kts | 277° |
| 2026-04-26 03:53 | 22.67113 | 48.66810 | 33964 ft | 436 kts | 277° |
| 2026-04-26 03:54 | 22.67541 | 48.60282 | 33964 ft | 436 kts | 277° |
| 2026-04-26 03:54 | 22.67964 | 48.53782 | 33968 ft | 435 kts | 276° |
| 2026-04-26 03:55 | 22.68388 | 48.47236 | 33973 ft | 435 kts | 277° |
| 2026-04-26 03:55 | 22.68807 | 48.40732 | 33967 ft | 435 kts | 277° |
| 2026-04-26 03:56 | 22.69224 | 48.34192 | 33973 ft | 435 kts | 276° |
| 2026-04-26 03:56 | 22.69638 | 48.27683 | 33980 ft | 435 kts | 276° |
| 2026-04-26 03:57 | 22.70048 | 48.21178 | 33990 ft | 434 kts | 276° |
| 2026-04-26 03:57 | 22.70456 | 48.14673 | 33989 ft | 434 kts | 276° |
| 2026-04-26 03:58 | 22.70862 | 48.08156 | 33986 ft | 436 kts | 276° |
| 2026-04-26 03:58 | 22.71263 | 48.01669 | 33994 ft | 433 kts | 276° |
| 2026-04-26 03:59 | 22.71664 | 47.95163 | 33996 ft | 434 kts | 276° |
| 2026-04-26 03:59 | 22.72062 | 47.88633 | 33997 ft | 433 kts | 276° |
| 2026-04-26 04:00 | 22.72454 | 47.82171 | 34001 ft | 433 kts | 276° |
| 2026-04-26 04:00 | 22.72847 | 47.75655 | 34014 ft | 433 kts | 276° |
| 2026-04-26 04:01 | 22.73236 | 47.69149 | 34004 ft | 433 kts | 276° |
| 2026-04-26 04:01 | 22.73621 | 47.62672 | 34013 ft | 433 kts | 276° |
| 2026-04-26 04:02 | 22.74004 | 47.56191 | 34027 ft | 432 kts | 276° |
| 2026-04-26 04:02 | 22.74385 | 47.49710 | 34026 ft | 433 kts | 276° |
| 2026-04-26 04:03 | 22.74762 | 47.43230 | 34029 ft | 431 kts | 276° |
| 2026-04-26 04:03 | 22.75136 | 47.36763 | 34036 ft | 430 kts | 276° |
| 2026-04-26 04:04 | 22.75508 | 47.30291 | 34061 ft | 431 kts | 275° |
| 2026-04-26 04:04 | 22.75874 | 47.23858 | 34065 ft | 431 kts | 275° |
| 2026-04-26 04:05 | 22.76242 | 47.17369 | 34065 ft | 430 kts | 275° |
| 2026-04-26 04:05 | 22.76739 | 47.10938 | 34068 ft | 431 kts | 277° |
| 2026-04-26 04:06 | 22.77260 | 47.04503 | 34071 ft | 430 kts | 277° |
| 2026-04-26 04:06 | 22.77773 | 46.98080 | 34076 ft | 430 kts | 277° |
| 2026-04-26 04:07 | 22.78281 | 46.91644 | 34081 ft | 430 kts | 277° |
| 2026-04-26 04:07 | 22.78783 | 46.85228 | 34079 ft | 429 kts | 276° |
| 2026-04-26 04:08 | 22.79284 | 46.78789 | 34078 ft | 429 kts | 276° |
| 2026-04-26 04:08 | 22.79781 | 46.72356 | 34079 ft | 429 kts | 276° |
| 2026-04-26 04:09 | 22.80278 | 46.65897 | 34084 ft | 430 kts | 276° |
| 2026-04-26 04:09 | 22.80768 | 46.59498 | 34097 ft | 429 kts | 276° |
| 2026-04-26 04:10 | 22.81260 | 46.53025 | 34102 ft | 429 kts | 276° |
| 2026-04-26 04:10 | 22.81743 | 46.46637 | 34105 ft | 430 kts | 276° |
| 2026-04-26 04:11 | 22.82231 | 46.40160 | 34113 ft | 429 kts | 276° |
| 2026-04-26 04:11 | 22.82710 | 46.33729 | 34127 ft | 429 kts | 276° |
| 2026-04-26 04:12 | 22.83188 | 46.27267 | 34137 ft | 430 kts | 276° |
| 2026-04-26 04:12 | 22.83662 | 46.20831 | 34130 ft | 430 kts | 276° |
| 2026-04-26 04:13 | 22.84132 | 46.14400 | 34115 ft | 430 kts | 276° |
| 2026-04-26 04:13 | 22.84601 | 46.07956 | 34100 ft | 429 kts | 276° |
| 2026-04-26 04:14 | 22.85067 | 46.01525 | 34082 ft | 431 kts | 276° |
| 2026-04-26 04:14 | 22.85531 | 45.95077 | 34074 ft | 429 kts | 276° |
| 2026-04-26 04:15 | 22.85994 | 45.88606 | 34074 ft | 431 kts | 275° |
| 2026-04-26 04:15 | 22.86454 | 45.82148 | 34071 ft | 428 kts | 276° |
| 2026-04-26 04:16 | 22.86909 | 45.75716 | 34067 ft | 431 kts | 276° |
| 2026-04-26 04:16 | 22.87362 | 45.69281 | 34071 ft | 430 kts | 275° |
| 2026-04-26 04:17 | 22.87815 | 45.62791 | 34070 ft | 430 kts | 275° |
| 2026-04-26 04:17 | 22.88262 | 45.56372 | 34077 ft | 430 kts | 275° |
| 2026-04-26 04:18 | 22.88709 | 45.49903 | 34075 ft | 429 kts | 275° |
| 2026-04-26 04:18 | 22.89148 | 45.43509 | 34074 ft | 429 kts | 275° |
| 2026-04-26 04:19 | 22.89590 | 45.37035 | 34071 ft | 430 kts | 275° |
| 2026-04-26 04:19 | 22.90026 | 45.30588 | 34091 ft | 429 kts | 275° |
| 2026-04-26 04:20 | 22.90459 | 45.24170 | 34088 ft | 429 kts | 275° |
| 2026-04-26 04:20 | 22.90890 | 45.17728 | 34086 ft | 430 kts | 275° |
| 2026-04-26 04:21 | 22.91320 | 45.11288 | 34087 ft | 430 kts | 274° |
| 2026-04-26 04:21 | 22.91745 | 45.04856 | 34086 ft | 428 kts | 275° |
| 2026-04-26 04:22 | 22.92168 | 44.98437 | 34084 ft | 428 kts | 275° |
| 2026-04-26 04:22 | 22.92591 | 44.91956 | 34084 ft | 431 kts | 274° |
| 2026-04-26 04:23 | 22.93009 | 44.85517 | 34084 ft | 428 kts | 274° |
| 2026-04-26 04:23 | 22.93425 | 44.79071 | 34085 ft | 430 kts | 274° |
| 2026-04-26 04:24 | 22.93836 | 44.72659 | 34084 ft | 428 kts | 275° |
| 2026-04-26 04:24 | 22.94522 | 44.66217 | 34085 ft | 430 kts | 284° |
| 2026-04-26 04:25 | 22.96345 | 44.60068 | 34080 ft | 430 kts | 287° |
| 2026-04-26 04:25 | 22.98252 | 44.53915 | 34077 ft | 431 kts | 287° |
| 2026-04-26 04:26 | 23.00149 | 44.47775 | 34072 ft | 430 kts | 287° |
| 2026-04-26 04:26 | 23.02039 | 44.41641 | 34076 ft | 432 kts | 287° |
| 2026-04-26 04:27 | 23.03934 | 44.35480 | 34080 ft | 431 kts | 287° |
| 2026-04-26 04:27 | 23.05834 | 44.29292 | 34099 ft | 431 kts | 287° |
| 2026-04-26 04:28 | 23.07726 | 44.23120 | 34099 ft | 431 kts | 287° |
| 2026-04-26 04:28 | 23.09605 | 44.16982 | 34099 ft | 431 kts | 287° |
| 2026-04-26 04:29 | 23.11487 | 44.10823 | 34100 ft | 430 kts | 286° |
| 2026-04-26 04:29 | 23.13368 | 44.04658 | 34100 ft | 431 kts | 286° |
| 2026-04-26 04:30 | 23.15253 | 43.98471 | 34098 ft | 430 kts | 287° |
| 2026-04-26 04:30 | 23.17129 | 43.92301 | 34097 ft | 431 kts | 286° |
| 2026-04-26 04:31 | 23.19004 | 43.86127 | 34098 ft | 431 kts | 286° |
| 2026-04-26 04:31 | 23.20875 | 43.79957 | 34097 ft | 431 kts | 286° |
| 2026-04-26 04:32 | 23.22748 | 43.73769 | 34097 ft | 432 kts | 286° |
| 2026-04-26 04:32 | 23.24613 | 43.67598 | 34095 ft | 430 kts | 286° |
| 2026-04-26 04:33 | 23.26468 | 43.61453 | 34095 ft | 431 kts | 286° |
| 2026-04-26 04:33 | 23.28330 | 43.55271 | 34091 ft | 432 kts | 286° |
| 2026-04-26 04:34 | 23.30200 | 43.49057 | 34093 ft | 431 kts | 286° |
| 2026-04-26 04:34 | 23.32061 | 43.42863 | 34094 ft | 430 kts | 286° |
| 2026-04-26 04:35 | 23.33904 | 43.36718 | 34094 ft | 431 kts | 286° |
| 2026-04-26 04:35 | 23.35765 | 43.30504 | 34111 ft | 431 kts | 286° |
| 2026-04-26 04:36 | 23.37611 | 43.24328 | 34114 ft | 430 kts | 286° |
| 2026-04-26 04:36 | 23.39459 | 43.18136 | 34114 ft | 431 kts | 286° |
| 2026-04-26 04:37 | 23.41299 | 43.11961 | 34114 ft | 430 kts | 286° |
| 2026-04-26 04:37 | 23.43148 | 43.05731 | 34106 ft | 432 kts | 285° |
| 2026-04-26 04:38 | 23.44974 | 42.99569 | 34110 ft | 431 kts | 285° |
| 2026-04-26 04:38 | 23.46812 | 42.93359 | 34110 ft | 431 kts | 285° |
| 2026-04-26 04:39 | 23.48650 | 42.87137 | 34107 ft | 431 kts | 285° |
| 2026-04-26 04:39 | 23.50474 | 42.80950 | 34105 ft | 430 kts | 285° |
| 2026-04-26 04:40 | 23.52304 | 42.74736 | 34102 ft | 430 kts | 285° |
| 2026-04-26 04:40 | 23.54132 | 42.68532 | 34101 ft | 430 kts | 285° |
| 2026-04-26 04:41 | 23.55958 | 42.62329 | 34100 ft | 429 kts | 285° |
| 2026-04-26 04:41 | 23.57774 | 42.56145 | 34099 ft | 432 kts | 285° |
| 2026-04-26 04:42 | 23.59593 | 42.49943 | 34094 ft | 428 kts | 285° |
| 2026-04-26 04:42 | 23.61402 | 42.43766 | 34094 ft | 429 kts | 285° |
| 2026-04-26 04:43 | 23.63215 | 42.37564 | 34091 ft | 428 kts | 285° |
| 2026-04-26 04:43 | 23.65014 | 42.31399 | 34109 ft | 428 kts | 285° |
| 2026-04-26 04:44 | 23.66814 | 42.25214 | 34108 ft | 428 kts | 285° |
| 2026-04-26 04:44 | 23.68609 | 42.19021 | 34106 ft | 427 kts | 285° |
| 2026-04-26 04:45 | 23.70392 | 42.12860 | 34101 ft | 428 kts | 285° |
| 2026-04-26 04:45 | 23.72186 | 42.06652 | 34100 ft | 427 kts | 284° |
| 2026-04-26 04:46 | 23.73964 | 42.00491 | 34098 ft | 428 kts | 285° |
| 2026-04-26 04:46 | 23.75755 | 41.94288 | 34098 ft | 427 kts | 285° |
| 2026-04-26 04:47 | 23.77538 | 41.88119 | 34089 ft | 427 kts | 284° |
| 2026-04-26 04:47 | 23.79318 | 41.81949 | 34092 ft | 427 kts | 285° |
| 2026-04-26 04:48 | 23.81975 | 41.72715 | 34086 ft | 426 kts | 285° |
| 2026-04-26 04:48 | 23.83749 | 41.66530 | 34085 ft | 425 kts | 284° |
| 2026-04-26 04:49 | 23.85512 | 41.60373 | 34080 ft | 427 kts | 284° |
| 2026-04-26 04:49 | 23.87271 | 41.54217 | 34079 ft | 426 kts | 284° |
| 2026-04-26 04:50 | 23.89025 | 41.48043 | 34078 ft | 424 kts | 284° |
| 2026-04-26 04:50 | 23.90772 | 41.41885 | 34073 ft | 426 kts | 284° |
| 2026-04-26 04:51 | 23.92534 | 41.35664 | 34068 ft | 423 kts | 284° |
| 2026-04-26 04:51 | 23.94271 | 41.29537 | 34084 ft | 424 kts | 284° |
| 2026-04-26 04:52 | 23.96011 | 41.23396 | 34083 ft | 424 kts | 284° |
| 2026-04-26 04:52 | 23.97749 | 41.17252 | 34080 ft | 425 kts | 284° |
| 2026-04-26 04:53 | 23.99492 | 41.11078 | 34079 ft | 425 kts | 284° |
| 2026-04-26 04:53 | 24.01229 | 41.04918 | 34076 ft | 423 kts | 284° |
| 2026-04-26 04:54 | 24.02951 | 40.98796 | 34072 ft | 423 kts | 283° |
| 2026-04-26 04:54 | 24.04681 | 40.92640 | 34071 ft | 425 kts | 284° |
| 2026-04-26 04:55 | 24.06402 | 40.86505 | 34066 ft | 423 kts | 283° |
| 2026-04-26 04:55 | 24.08126 | 40.80345 | 34064 ft | 422 kts | 284° |
| 2026-04-26 04:56 | 24.09833 | 40.74241 | 34064 ft | 421 kts | 283° |
| 2026-04-26 04:56 | 24.11550 | 40.68087 | 34064 ft | 423 kts | 283° |
| 2026-04-26 04:57 | 24.13252 | 40.61981 | 34059 ft | 420 kts | 283° |
| 2026-04-26 04:57 | 24.14953 | 40.55864 | 34055 ft | 421 kts | 283° |
| 2026-04-26 04:58 | 24.16970 | 40.49814 | 34053 ft | 427 kts | 292° |
| 2026-04-26 04:58 | 24.19713 | 40.44080 | 34052 ft | 425 kts | 292° |
| 2026-04-26 04:59 | 24.22471 | 40.38341 | 34049 ft | 426 kts | 292° |
| 2026-04-26 04:59 | 24.25214 | 40.32620 | 34071 ft | 426 kts | 292° |
| 2026-04-26 05:00 | 24.27970 | 40.26864 | 34066 ft | 425 kts | 292° |
| 2026-04-26 05:00 | 24.30708 | 40.21137 | 34069 ft | 424 kts | 292° |
| 2026-04-26 05:01 | 24.33430 | 40.15434 | 34069 ft | 425 kts | 292° |
| 2026-04-26 05:01 | 24.36162 | 40.09703 | 34067 ft | 425 kts | 292° |
| 2026-04-26 05:02 | 24.38905 | 40.03943 | 34067 ft | 423 kts | 292° |
| 2026-04-26 05:02 | 24.41610 | 39.98253 | 34065 ft | 424 kts | 292° |
| 2026-04-26 05:03 | 24.44342 | 39.92501 | 34054 ft | 424 kts | 292° |
| 2026-04-26 05:03 | 24.47049 | 39.86798 | 34052 ft | 421 kts | 292° |
| 2026-04-26 05:04 | 24.49744 | 39.81108 | 34035 ft | 423 kts | 292° |
| 2026-04-26 05:04 | 24.52450 | 39.75389 | 34028 ft | 421 kts | 292° |
| 2026-04-26 05:05 | 24.55773 | 39.70052 | 34032 ft | 434 kts | 307° |
| 2026-04-26 05:05 | 24.58106 | 39.67817 | 34037 ft | 445 kts | 314° |
| 2026-04-26 05:05 | 24.60586 | 39.65825 | 34036 ft | 444 kts | 315° |
| 2026-04-26 05:06 | 24.65587 | 39.61856 | 34049 ft | 446 kts | 315° |
| 2026-04-26 05:06 | 24.70637 | 39.57836 | 34062 ft | 445 kts | 315° |
| 2026-04-26 05:07 | 24.75635 | 39.53845 | 34075 ft | 445 kts | 315° |
| 2026-04-26 05:07 | 24.80634 | 39.49847 | 34074 ft | 445 kts | 315° |
| 2026-04-26 05:08 | 24.85620 | 39.45855 | 34060 ft | 443 kts | 315° |
| 2026-04-26 05:08 | 24.90626 | 39.41840 | 34038 ft | 443 kts | 315° |
| 2026-04-26 05:09 | 24.95597 | 39.37849 | 34026 ft | 443 kts | 315° |
| 2026-04-26 05:09 | 25.00591 | 39.33836 | 34031 ft | 442 kts | 314° |
| 2026-04-26 05:10 | 25.05549 | 39.29846 | 34038 ft | 443 kts | 314° |
| 2026-04-26 05:10 | 25.10523 | 39.25841 | 34032 ft | 441 kts | 314° |
| 2026-04-26 05:11 | 25.15485 | 39.21840 | 34048 ft | 442 kts | 314° |
| 2026-04-26 05:11 | 25.20414 | 39.17788 | 34043 ft | 435 kts | 310° |
| 2026-04-26 05:12 | 25.24273 | 39.12869 | 34048 ft | 420 kts | 296° |
| 2026-04-26 05:12 | 25.27456 | 39.07467 | 34051 ft | 419 kts | 296° |
| 2026-04-26 05:13 | 25.30604 | 39.02092 | 34028 ft | 417 kts | 296° |
| 2026-04-26 05:13 | 25.33758 | 38.96697 | 34023 ft | 418 kts | 296° |
| 2026-04-26 05:14 | 25.36900 | 38.91318 | 34020 ft | 417 kts | 295° |
| 2026-04-26 05:14 | 25.40053 | 38.85911 | 33999 ft | 419 kts | 295° |
| 2026-04-26 05:15 | 25.43191 | 38.80529 | 33997 ft | 415 kts | 295° |
| 2026-04-26 05:15 | 25.46323 | 38.75145 | 33980 ft | 417 kts | 295° |
| 2026-04-26 05:16 | 25.49444 | 38.69776 | 33983 ft | 418 kts | 295° |
| 2026-04-26 05:16 | 25.52588 | 38.64363 | 33975 ft | 415 kts | 295° |
| 2026-04-26 05:17 | 25.55693 | 38.59008 | 33981 ft | 417 kts | 295° |
| 2026-04-26 05:17 | 25.58821 | 38.53609 | 33983 ft | 416 kts | 295° |
| 2026-04-26 05:18 | 25.61940 | 38.48218 | 33983 ft | 416 kts | 295° |
| 2026-04-26 05:18 | 25.65047 | 38.42844 | 33986 ft | 415 kts | 295° |
| 2026-04-26 05:19 | 25.68166 | 38.37439 | 33983 ft | 417 kts | 295° |
| 2026-04-26 05:19 | 25.71269 | 38.32061 | 33999 ft | 414 kts | 295° |
| 2026-04-26 05:20 | 25.74385 | 38.26651 | 33986 ft | 413 kts | 295° |
| 2026-04-26 05:20 | 25.77482 | 38.21266 | 33980 ft | 415 kts | 295° |
| 2026-04-26 05:21 | 25.80562 | 38.15905 | 33987 ft | 414 kts | 295° |
| 2026-04-26 05:21 | 25.83648 | 38.10529 | 33995 ft | 415 kts | 295° |
| 2026-04-26 05:22 | 25.86743 | 38.05132 | 33988 ft | 414 kts | 295° |
| 2026-04-26 05:22 | 25.89834 | 37.99734 | 33986 ft | 413 kts | 295° |
| 2026-04-26 05:23 | 25.92930 | 37.94319 | 33994 ft | 415 kts | 295° |
| 2026-04-26 05:23 | 25.96000 | 37.88947 | 34011 ft | 412 kts | 294° |
| 2026-04-26 05:24 | 25.99040 | 37.83547 | 34021 ft | 412 kts | 291° |
| 2026-04-26 05:24 | 26.00884 | 37.77712 | 34037 ft | 398 kts | 276° |
| 2026-04-26 05:25 | 26.01752 | 37.71639 | 34051 ft | 397 kts | 275° |
| 2026-04-26 05:25 | 26.02584 | 37.65600 | 34035 ft | 397 kts | 275° |
| 2026-04-26 05:26 | 26.03405 | 37.59575 | 34016 ft | 396 kts | 275° |
| 2026-04-26 05:26 | 26.04224 | 37.53526 | 33996 ft | 396 kts | 275° |